createdAt,value
2022-08-07T00:01:04.944Z,82.2
2022-08-07T00:02:21.224Z,81.9
2022-08-07T00:03:36.534Z,82.1
2022-08-07T00:04:52.831Z,81.6
2022-08-07T00:06:09.124Z,81.5
2022-08-07T00:07:25.418Z,80.9
2022-08-07T00:08:41.715Z,80.8
2022-08-07T00:09:58.010Z,80.9
2022-08-07T00:11:14.296Z,81
2022-08-07T00:12:30.581Z,80.3
2022-08-07T00:13:46.878Z,79.6
2022-08-07T00:15:03.187Z,79.9
2022-08-07T00:16:19.478Z,79.6
2022-08-07T00:17:35.768Z,79.5
2022-08-07T00:18:52.062Z,79.3
2022-08-07T00:20:07.370Z,79.2
2022-08-07T00:21:23.656Z,78.7
2022-08-07T00:22:39.950Z,79.4
2022-08-07T00:23:56.246Z,79.6
2022-08-07T00:25:12.536Z,79.4
2022-08-07T00:26:28.825Z,78.6
2022-08-07T00:27:45.129Z,78.3
2022-08-07T00:29:01.409Z,78.3
2022-08-07T00:30:17.705Z,78.6
2022-08-07T00:31:33.997Z,78.2
2022-08-07T00:32:50.282Z,78.5
2022-08-07T00:34:06.583Z,78.9
2022-08-07T00:35:22.871Z,78.4
2022-08-07T00:36:38.184Z,78.9
2022-08-07T00:37:54.482Z,79
2022-08-07T00:39:10.766Z,79.2
2022-08-07T00:40:27.072Z,79.1
2022-08-07T00:41:43.358Z,79.7
2022-08-07T00:42:59.647Z,80.9
2022-08-07T00:44:15.938Z,81.5
2022-08-07T00:45:32.240Z,81.7
2022-08-07T00:48:04.820Z,82
2022-08-07T00:49:21.121Z,82.3
2022-08-07T00:50:37.411Z,82.1
2022-08-07T00:51:53.691Z,82.3
2022-08-07T00:53:09.009Z,81.8
2022-08-07T00:54:25.296Z,81.8
2022-08-07T00:55:41.581Z,81.7
2022-08-07T00:56:57.879Z,81.9
2022-08-07T00:58:14.184Z,81.4
2022-08-07T00:59:30.463Z,82
2022-08-07T01:00:46.765Z,82
2022-08-07T01:02:03.046Z,81.9
2022-08-07T01:03:19.344Z,82.4
2022-08-07T01:04:35.643Z,82.7
2022-08-07T01:05:51.943Z,82.4
2022-08-07T01:07:08.217Z,82.4
2022-08-07T01:08:24.516Z,83.2
2022-08-07T01:09:39.836Z,84.2
2022-08-07T01:10:56.110Z,84.1
2022-08-07T01:12:12.418Z,84.3
2022-08-07T01:13:28.698Z,84.3
2022-08-07T01:14:44.994Z,84.4
2022-08-07T01:16:01.298Z,84.4
2022-08-07T01:17:17.589Z,84.7
2022-08-07T01:18:33.865Z,84.4
2022-08-07T01:19:50.173Z,83
2022-08-07T01:21:06.462Z,82.4
2022-08-07T01:22:22.758Z,81.9
2022-08-07T01:23:39.035Z,81.4
2022-08-07T01:24:55.341Z,81.7
2022-08-07T01:26:10.646Z,81.6
2022-08-07T01:27:26.935Z,80.6
2022-08-07T01:28:43.229Z,80.5
2022-08-07T01:29:59.525Z,80.6
2022-08-07T01:31:15.813Z,80.3
2022-08-07T01:32:32.100Z,80.5
2022-08-07T01:33:48.393Z,80.3
2022-08-07T01:35:04.684Z,80.6
2022-08-07T01:36:20.986Z,81.2
2022-08-07T01:37:37.279Z,79.8
2022-08-07T01:38:53.573Z,79.3
2022-08-07T01:40:09.869Z,79.2
2022-08-07T01:41:26.161Z,79
2022-08-07T01:42:41.468Z,79.3
2022-08-07T01:43:57.751Z,78.9
2022-08-07T01:45:14.061Z,79.1
2022-08-07T01:46:30.335Z,79.1
2022-08-07T01:47:46.634Z,78.8
2022-08-07T01:49:02.919Z,79.2
2022-08-07T01:50:19.211Z,79.1
2022-08-07T01:51:35.516Z,79.4
2022-08-07T01:52:51.812Z,80.4
2022-08-07T01:54:08.100Z,80.4
2022-08-07T01:55:24.389Z,80.3
2022-08-07T01:56:40.687Z,80
2022-08-07T01:57:56.970Z,80
2022-08-07T01:59:12.290Z,80.1
2022-08-07T02:00:28.576Z,80.3
2022-08-07T02:01:44.874Z,80.4
2022-08-07T02:03:01.164Z,80.4
2022-08-07T02:04:17.453Z,80.5
2022-08-07T02:05:33.758Z,80.8
2022-08-07T02:06:50.034Z,80.7
2022-08-07T02:08:06.335Z,80.8
2022-08-07T02:09:22.621Z,81.2
2022-08-07T02:10:38.927Z,81.5
2022-08-07T02:11:55.207Z,81.3
2022-08-07T02:13:11.508Z,81.6
2022-08-07T02:14:27.804Z,81.9
2022-08-07T02:15:43.112Z,81.8
2022-08-07T02:16:59.402Z,81.8
2022-08-07T02:18:15.700Z,82.2
2022-08-07T02:19:31.975Z,81.5
2022-08-07T02:20:48.267Z,81.6
2022-08-07T02:22:04.568Z,81.9
2022-08-07T02:23:20.854Z,81.8
2022-08-07T02:24:37.158Z,81.6
2022-08-07T02:25:53.442Z,81.5
2022-08-07T02:27:09.731Z,81.6
2022-08-07T02:28:26.029Z,81.8
2022-08-07T02:29:42.336Z,82.1
2022-08-07T02:30:58.613Z,81.7
2022-08-07T02:32:13.937Z,81.5
2022-08-07T02:33:30.217Z,82.1
2022-08-07T02:34:46.516Z,81.6
2022-08-07T02:36:02.814Z,81.2
2022-08-07T02:37:19.102Z,80.9
2022-08-07T02:38:35.385Z,81
2022-08-07T02:39:51.691Z,81.2
2022-08-07T02:41:07.968Z,81.5
2022-08-07T02:42:24.280Z,81.5
2022-08-07T02:43:40.563Z,81.9
2022-08-07T02:44:56.863Z,81.5
2022-08-07T02:46:13.141Z,82
2022-08-07T02:47:29.451Z,81.8
2022-08-07T02:48:44.744Z,81.8
2022-08-07T02:50:01.034Z,82.2
2022-08-07T02:51:17.332Z,82.2
2022-08-07T02:52:33.619Z,82.1
2022-08-07T02:53:49.913Z,81.6
2022-08-07T02:55:06.221Z,81.8
2022-08-07T02:56:22.499Z,81.8
2022-08-07T02:57:38.808Z,81.7
2022-08-07T02:58:55.091Z,81.4
2022-08-07T03:00:11.386Z,81.5
2022-08-07T03:01:27.678Z,81.5
2022-08-07T03:02:43.972Z,82.2
2022-08-07T03:04:00.270Z,81.7
2022-08-07T03:05:15.566Z,81.4
2022-08-07T03:06:31.863Z,81.7
2022-08-07T03:07:48.110Z,82.3
2022-08-07T03:09:04.363Z,82.5
2022-08-07T03:10:20.585Z,82.6
2022-08-07T03:11:36.828Z,82.5
2022-08-07T03:12:53.135Z,82.8
2022-08-07T03:14:09.370Z,82.7
2022-08-07T03:15:25.603Z,82.6
2022-08-07T03:16:41.864Z,82.7
2022-08-07T03:17:58.107Z,82.8
2022-08-07T03:19:14.347Z,83.1
2022-08-07T03:20:30.588Z,82.9
2022-08-07T03:21:45.850Z,82.9
2022-08-07T03:23:02.076Z,83.1
2022-08-07T03:24:18.324Z,83.7
2022-08-07T03:25:34.557Z,83.6
2022-08-07T03:26:50.797Z,83.9
2022-08-07T03:28:07.040Z,84.1
2022-08-07T03:29:23.275Z,83.6
2022-08-07T03:30:39.512Z,83.8
2022-08-07T03:31:55.751Z,83.5
2022-08-07T03:33:11.990Z,83.7
2022-08-07T03:34:28.237Z,84.4
2022-08-07T03:35:44.482Z,84.2
2022-08-07T03:37:00.705Z,84.3
2022-08-07T03:38:15.960Z,84.4
2022-08-07T03:39:32.195Z,84.4
2022-08-07T03:40:48.448Z,84.5
2022-08-07T03:42:04.690Z,85.3
2022-08-07T03:43:20.921Z,86.1
2022-08-07T03:44:37.158Z,85.7
2022-08-07T03:45:53.399Z,85.6
2022-08-07T03:47:09.630Z,85.7
2022-08-07T03:48:25.887Z,85.5
2022-08-07T03:49:42.126Z,85.1
2022-08-07T03:50:58.353Z,84.7
2022-08-07T03:52:14.587Z,84.9
2022-08-07T03:53:30.839Z,84.8
2022-08-07T03:54:46.081Z,85
2022-08-07T03:56:02.335Z,85.5
2022-08-07T03:57:18.556Z,85.3
2022-08-07T03:58:34.803Z,85.1
2022-08-07T03:59:51.037Z,85.2
2022-08-07T04:01:07.287Z,85.4
2022-08-07T04:02:22.544Z,85.3
2022-08-07T04:03:38.786Z,85.5
2022-08-07T04:04:55.015Z,85.7
2022-08-07T04:06:11.267Z,85.6
2022-08-07T04:07:27.496Z,85.2
2022-08-07T04:08:43.738Z,85.2
2022-08-07T04:09:59.964Z,85.4
2022-08-07T04:11:16.202Z,85.3
2022-08-07T04:12:32.446Z,85.2
2022-08-07T04:13:48.684Z,85.4
2022-08-07T04:15:04.936Z,85.4
2022-08-07T04:16:21.164Z,85.6
2022-08-07T04:17:37.404Z,86
2022-08-07T04:18:52.667Z,86.3
2022-08-07T04:20:08.893Z,86.3
2022-08-07T04:21:25.145Z,86.2
2022-08-07T04:22:41.373Z,86.4
2022-08-07T04:23:57.627Z,86.7
2022-08-07T04:25:13.860Z,86.7
2022-08-07T04:26:30.100Z,86.7
2022-08-07T04:27:46.326Z,87
2022-08-07T04:29:02.573Z,87.1
2022-08-07T04:30:18.820Z,87.4
2022-08-07T04:31:35.000Z,87.3
2022-08-07T04:32:51.284Z,87.4
2022-08-07T04:34:07.523Z,87.4
2022-08-07T04:35:22.777Z,87.4
2022-08-07T04:36:39.022Z,87.6
2022-08-07T04:37:55.249Z,87.7
2022-08-07T04:39:11.490Z,87.8
2022-08-07T04:40:27.744Z,87.7
2022-08-07T04:41:43.978Z,87.8
2022-08-07T04:43:00.208Z,87.9
2022-08-07T04:44:16.454Z,87.7
2022-08-07T04:45:32.691Z,87.7
2022-08-07T04:46:48.936Z,87.7
2022-08-07T04:48:05.162Z,87.7
2022-08-07T04:49:21.399Z,87.9
2022-08-07T04:50:37.645Z,88
2022-08-07T04:51:52.906Z,88.3
2022-08-07T04:53:09.143Z,88.7
2022-08-07T04:54:25.373Z,89.3
2022-08-07T04:55:41.611Z,90
2022-08-07T04:56:57.855Z,90.1
2022-08-07T04:58:14.089Z,89.9
2022-08-07T04:59:30.343Z,89.5
2022-08-07T05:00:46.575Z,89.9
2022-08-07T05:02:02.804Z,89.9
2022-08-07T05:03:19.043Z,90.2
2022-08-07T05:04:35.297Z,90
2022-08-07T05:05:51.529Z,89.8
2022-08-07T05:07:07.762Z,89.3
2022-08-07T05:08:23.028Z,88.4
2022-08-07T05:09:39.251Z,87.9
2022-08-07T05:10:55.496Z,87.7
2022-08-07T05:12:11.748Z,87.5
2022-08-07T05:13:27.976Z,87
2022-08-07T05:14:44.227Z,86.9
2022-08-07T05:16:00.448Z,86.7
2022-08-07T05:17:16.684Z,86.6
2022-08-07T05:18:32.932Z,86.9
2022-08-07T05:19:49.165Z,87.1
2022-08-07T05:21:05.419Z,87.9
2022-08-07T05:22:21.642Z,88.6
2022-08-07T05:23:37.883Z,88.6
2022-08-07T05:24:53.151Z,88.3
2022-08-07T05:26:09.391Z,88.4
2022-08-07T05:27:25.616Z,88.6
2022-08-07T05:28:41.856Z,88.3
2022-08-07T05:29:58.098Z,87.9
2022-08-07T05:31:14.344Z,87.9
2022-08-07T05:32:30.571Z,87.4
2022-08-07T05:33:46.821Z,87.1
2022-08-07T05:35:03.048Z,85.8
2022-08-07T05:36:19.299Z,84.7
2022-08-07T05:37:35.529Z,83.5
2022-08-07T05:38:51.762Z,81.8
2022-08-07T05:40:08.017Z,80.8
2022-08-07T05:41:23.268Z,80.4
2022-08-07T05:42:39.509Z,79.5
2022-08-07T05:43:55.738Z,78.7
2022-08-07T05:45:11.976Z,78.7
2022-08-07T05:46:28.209Z,77.6
2022-08-07T05:47:44.445Z,76.9
2022-08-07T05:49:00.704Z,78.2
2022-08-07T05:50:16.923Z,76.7
2022-08-07T05:51:33.176Z,75.4
2022-08-07T05:52:49.410Z,72.9
2022-08-07T05:54:05.659Z,72.8
2022-08-07T05:55:21.890Z,72
2022-08-07T05:56:38.129Z,71.6
2022-08-07T05:57:53.392Z,71.6
2022-08-07T05:59:09.615Z,71
2022-08-07T06:00:25.868Z,70.6
2022-08-07T06:01:42.106Z,71
2022-08-07T06:02:58.329Z,70.5
2022-08-07T06:04:14.577Z,70.4
2022-08-07T06:05:30.809Z,70.2
2022-08-07T06:06:47.048Z,69.8
2022-08-07T06:08:03.299Z,69.6
2022-08-07T06:09:19.535Z,70
2022-08-07T06:10:35.776Z,70.5
2022-08-07T06:11:52.012Z,70.2
2022-08-07T06:13:08.255Z,70.1
2022-08-07T06:14:23.492Z,68.2
2022-08-07T06:15:39.746Z,67.2
2022-08-07T06:16:55.986Z,67.9
2022-08-07T06:18:12.229Z,67.6
2022-08-07T06:19:28.464Z,68.2
2022-08-07T06:20:44.693Z,67.6
2022-08-07T06:22:00.933Z,67.9
2022-08-07T06:23:17.179Z,67.4
2022-08-07T06:24:33.410Z,67.1
2022-08-07T06:25:49.652Z,67.2
2022-08-07T06:27:05.893Z,67.8
2022-08-07T06:28:22.133Z,68.2
2022-08-07T06:29:38.376Z,68.5
2022-08-07T06:30:53.632Z,67.5
2022-08-07T06:32:09.855Z,67.1
2022-08-07T06:33:26.091Z,66.3
2022-08-07T06:34:42.335Z,66.2
2022-08-07T06:35:58.579Z,66.8
2022-08-07T06:37:14.807Z,67.1
2022-08-07T06:38:31.043Z,66.4
2022-08-07T06:39:47.284Z,66.2
2022-08-07T06:41:03.524Z,64.8
2022-08-07T06:42:19.774Z,64.5
2022-08-07T06:43:36.005Z,64.5
2022-08-07T06:44:52.239Z,64.8
2022-08-07T06:46:08.487Z,64.7
2022-08-07T06:47:23.743Z,63.7
2022-08-07T06:48:39.975Z,64.9
2022-08-07T06:49:56.216Z,63.8
2022-08-07T06:51:12.459Z,63.9
2022-08-07T06:52:28.704Z,63.9
2022-08-07T06:53:44.925Z,62.6
2022-08-07T06:55:01.172Z,63
2022-08-07T06:56:17.413Z,62.4
2022-08-07T06:57:33.651Z,61.6
2022-08-07T06:58:49.879Z,61.6
2022-08-07T07:00:06.131Z,61.4
2022-08-07T07:01:22.365Z,61.2
2022-08-07T07:02:38.603Z,61.1
2022-08-07T07:03:53.864Z,61.8
2022-08-07T07:05:10.103Z,62.1
2022-08-07T07:06:26.343Z,61.1
2022-08-07T07:07:42.567Z,60.3
2022-08-07T07:08:58.812Z,60.3
2022-08-07T07:10:15.047Z,59.3
2022-08-07T07:11:31.286Z,59
2022-08-07T07:12:47.531Z,60
2022-08-07T07:14:03.766Z,60.2
2022-08-07T07:15:19.999Z,58.9
2022-08-07T07:16:36.242Z,57.7
2022-08-07T07:17:52.487Z,57.4
2022-08-07T07:19:08.725Z,56.6
2022-08-07T07:20:23.969Z,56
2022-08-07T07:22:56.444Z,56
2022-08-07T07:24:12.696Z,55.5
2022-08-07T07:25:28.928Z,55
2022-08-07T07:26:45.172Z,55.3
2022-08-07T07:28:01.407Z,54.3
2022-08-07T07:29:17.648Z,53.9
2022-08-07T07:30:33.887Z,54.3
2022-08-07T07:31:50.132Z,54.5
2022-08-07T07:33:06.372Z,54.5
2022-08-07T07:34:22.596Z,54.4
2022-08-07T07:35:38.848Z,54.9
2022-08-07T07:36:54.085Z,54.4
2022-08-07T07:38:10.335Z,53.2
2022-08-07T07:39:26.574Z,52.7
2022-08-07T07:40:42.808Z,52.6
2022-08-07T07:41:59.046Z,53.3
2022-08-07T07:43:15.293Z,53.3
2022-08-07T07:44:31.525Z,52.3
2022-08-07T07:45:47.758Z,53.1
2022-08-07T07:47:04.009Z,51.6
2022-08-07T07:48:20.233Z,52
2022-08-07T07:49:36.478Z,51.1
2022-08-07T07:50:52.710Z,51.7
2022-08-07T07:52:08.961Z,51.5
2022-08-07T07:53:24.211Z,50.3
2022-08-07T07:54:40.458Z,49.2
2022-08-07T07:55:56.683Z,48.2
2022-08-07T07:58:29.161Z,49.1
2022-08-07T07:59:45.409Z,48.4
2022-08-07T08:01:01.647Z,47.3
2022-08-07T08:02:17.892Z,48.2
2022-08-07T08:03:34.131Z,48.4
2022-08-07T08:04:50.364Z,48.6
2022-08-07T08:06:06.606Z,47.5
2022-08-07T08:07:22.839Z,46.7
2022-08-07T08:08:39.000Z,46.9
2022-08-07T08:09:54.340Z,44.8
2022-08-07T08:11:10.576Z,43.9
2022-08-07T08:12:26.810Z,44.1
2022-08-07T08:13:43.038Z,44.6
2022-08-07T08:14:59.295Z,44.3
2022-08-07T08:16:15.526Z,44.4
2022-08-07T08:17:31.757Z,43.5
2022-08-07T08:18:47.031Z,43.5
2022-08-07T08:20:03.266Z,41.7
2022-08-07T08:21:19.494Z,37.8
2022-08-07T08:22:35.744Z,36.9
2022-08-07T08:23:51.979Z,37.5
2022-08-07T08:25:08.223Z,38.9
2022-08-07T08:26:24.457Z,37.5
2022-08-07T08:27:40.682Z,36.9
2022-08-07T08:28:56.937Z,36.1
2022-08-07T08:30:13.168Z,36.8
2022-08-07T08:31:29.415Z,38
2022-08-07T08:32:45.646Z,33.2
2022-08-07T08:34:01.885Z,32.2
2022-08-07T08:35:17.146Z,32.7
2022-08-07T08:36:33.383Z,30.9
2022-08-07T08:37:49.625Z,30
2022-08-07T08:39:05.853Z,30.8
2022-08-07T08:40:22.098Z,30.2
2022-08-07T08:41:38.338Z,30
2022-08-07T08:42:54.562Z,29.8
2022-08-07T08:44:10.817Z,30.1
2022-08-07T08:45:27.050Z,28.7
2022-08-07T08:46:43.277Z,29.2
2022-08-07T08:47:59.517Z,28.7
2022-08-07T08:49:15.765Z,27.7
2022-08-07T08:50:31.993Z,28.4
2022-08-07T08:51:47.250Z,28.7
2022-08-07T08:53:03.495Z,28.7
2022-08-07T08:54:19.737Z,28.1
2022-08-07T08:55:35.978Z,27.1
2022-08-07T08:56:52.216Z,27.9
2022-08-07T08:58:08.455Z,28.9
2022-08-07T08:59:24.697Z,30.2
2022-08-07T09:00:40.925Z,27.8
2022-08-07T09:01:57.176Z,25
2022-08-07T09:03:13.409Z,27.2
2022-08-07T09:04:29.640Z,27.8
2022-08-07T09:05:45.881Z,25.1
2022-08-07T09:07:02.112Z,26.2
2022-08-07T09:08:17.377Z,25.9
2022-08-07T09:09:33.610Z,27.4
2022-08-07T09:10:49.843Z,25.5
2022-08-07T09:12:06.090Z,26.4
2022-08-07T09:13:22.339Z,25.1
2022-08-07T09:14:38.565Z,25.1
2022-08-07T09:15:54.808Z,24.5
2022-08-07T09:17:11.042Z,24.8
2022-08-07T09:18:27.291Z,25.1
2022-08-07T09:19:43.528Z,25
2022-08-07T09:20:59.753Z,24.5
2022-08-07T09:22:16.008Z,23.6
2022-08-07T09:23:32.236Z,24.6
2022-08-07T09:24:47.497Z,24
2022-08-07T09:26:03.728Z,24.6
2022-08-07T09:27:19.961Z,26.7
2022-08-07T09:28:36.219Z,24.8
2022-08-07T09:29:52.455Z,27.5
2022-08-07T09:31:08.691Z,26.4
2022-08-07T09:32:24.928Z,24.9
2022-08-07T09:33:41.169Z,24.7
2022-08-07T09:34:57.396Z,26.1
2022-08-07T09:36:13.645Z,26.6
2022-08-07T09:37:29.888Z,26
2022-08-07T09:38:46.131Z,25.6
2022-08-07T09:40:02.358Z,25.7
2022-08-07T09:41:17.620Z,24.5
2022-08-07T09:42:33.846Z,24
2022-08-07T09:43:50.084Z,26.1
2022-08-07T09:45:06.337Z,25.4
2022-08-07T09:46:22.580Z,25.1
2022-08-07T09:47:38.806Z,25.4
2022-08-07T09:48:55.055Z,25.1
2022-08-07T09:50:11.293Z,24.3
2022-08-07T09:51:27.533Z,24.8
2022-08-07T09:52:43.773Z,24.8
2022-08-07T09:54:00.017Z,25.5
2022-08-07T09:55:16.239Z,25.2
2022-08-07T09:56:32.473Z,23.8
2022-08-07T09:57:47.741Z,24.2
2022-08-07T09:59:03.984Z,22.9
2022-08-07T10:00:20.224Z,22.7
2022-08-07T10:01:36.464Z,23.8
2022-08-07T10:02:52.694Z,24
2022-08-07T10:04:08.941Z,23.2
2022-08-07T10:05:25.163Z,22.6
2022-08-07T10:06:41.403Z,22.9
2022-08-07T10:07:57.647Z,23.2
2022-08-07T10:09:13.894Z,23.2
2022-08-07T10:10:30.125Z,23.2
2022-08-07T10:11:46.359Z,23.6
2022-08-07T10:13:02.611Z,26.4
2022-08-07T10:14:17.868Z,25.1
2022-08-07T10:15:34.104Z,23.9
2022-08-07T10:16:50.346Z,23.6
2022-08-07T10:18:06.570Z,23.6
2022-08-07T10:19:22.820Z,24.4
2022-08-07T10:20:39.050Z,24.2
2022-08-07T10:21:55.288Z,24.9
2022-08-07T10:23:11.535Z,25.6
2022-08-07T10:24:27.781Z,27.6
2022-08-07T10:25:44.021Z,27.6
2022-08-07T10:27:00.259Z,26.4
2022-08-07T10:28:16.500Z,26
2022-08-07T10:29:32.731Z,26.1
2022-08-07T10:30:47.984Z,23.7
2022-08-07T10:32:04.229Z,26.3
2022-08-07T10:33:20.469Z,25.9
2022-08-07T10:34:36.698Z,24.6
2022-08-07T10:35:52.944Z,23.8
2022-08-07T10:37:09.171Z,24.2
2022-08-07T10:38:25.415Z,23.3
2022-08-07T10:39:41.662Z,22.9
2022-08-07T10:40:57.891Z,22.3
2022-08-07T10:42:14.131Z,23.2
2022-08-07T10:43:30.380Z,23.4
2022-08-07T10:44:46.605Z,22.3
2022-08-07T10:46:02.853Z,23
2022-08-07T10:47:18.103Z,23.6
2022-08-07T10:48:34.338Z,21.4
2022-08-07T10:49:50.581Z,21.1
2022-08-07T10:51:06.824Z,21.6
2022-08-07T10:52:23.073Z,21.5
2022-08-07T10:53:39.313Z,21.2
2022-08-07T10:54:55.548Z,23.5
2022-08-07T10:56:11.772Z,22.7
2022-08-07T10:57:28.018Z,22.5
2022-08-07T10:58:44.252Z,24.1
2022-08-07T11:00:00.496Z,20.7
2022-08-07T11:01:16.736Z,22.5
2022-08-07T11:02:32.970Z,21.8
2022-08-07T11:03:48.235Z,22.8
2022-08-07T11:05:04.469Z,22.4
2022-08-07T11:06:20.713Z,22.8
2022-08-07T11:07:36.953Z,23.2
2022-08-07T11:08:53.198Z,22.6
2022-08-07T11:10:09.434Z,23.3
2022-08-07T11:11:25.657Z,22.6
2022-08-07T11:12:41.910Z,22.2
2022-08-07T11:13:58.152Z,22.8
2022-08-07T11:15:14.373Z,23.1
2022-08-07T11:16:30.615Z,21.8
2022-08-07T11:17:46.853Z,21.7
2022-08-07T11:19:03.105Z,21.8
2022-08-07T11:20:18.346Z,22.7
2022-08-07T11:21:34.591Z,21.5
2022-08-07T11:22:50.831Z,21.9
2022-08-07T11:24:07.062Z,23.7
2022-08-07T11:25:23.313Z,22.9
2022-08-07T11:26:39.558Z,24
2022-08-07T11:27:55.782Z,23.5
2022-08-07T11:29:12.038Z,23.5
2022-08-07T11:30:28.268Z,22.9
2022-08-07T11:31:44.500Z,23.5
2022-08-07T11:33:00.745Z,21.6
2022-08-07T11:34:16.990Z,21.1
2022-08-07T11:35:33.226Z,22.4
2022-08-07T11:36:48.469Z,22.8
2022-08-07T11:38:04.711Z,21.6
2022-08-07T11:39:20.962Z,21.9
2022-08-07T11:40:37.206Z,23
2022-08-07T11:41:53.437Z,22.3
2022-08-07T11:43:09.666Z,22
2022-08-07T11:44:25.910Z,22.5
2022-08-07T11:45:42.142Z,20.9
2022-08-07T11:46:58.387Z,21.6
2022-08-07T11:48:14.633Z,21.9
2022-08-07T11:49:30.873Z,21.6
2022-08-07T11:50:47.102Z,21.8
2022-08-07T11:52:03.335Z,21
2022-08-07T11:53:18.589Z,21.1
2022-08-07T11:54:34.828Z,22.2
2022-08-07T11:55:51.072Z,22.5
2022-08-07T11:57:07.315Z,20.9
2022-08-07T11:58:23.556Z,21.5
2022-08-07T11:59:39.792Z,21.5
2022-08-07T12:00:56.034Z,22
2022-08-07T12:02:12.269Z,22.1
2022-08-07T12:03:28.519Z,23.2
2022-08-07T12:04:44.744Z,22.5
2022-08-07T12:06:00.983Z,22.1
2022-08-07T12:07:17.218Z,21.7
2022-08-07T12:08:33.463Z,20.8
2022-08-07T12:09:48.718Z,22.5
2022-08-07T12:11:04.959Z,21.2
2022-08-07T12:12:21.192Z,21.7
2022-08-07T12:13:37.448Z,22.7
2022-08-07T12:14:53.681Z,20.8
2022-08-07T12:16:09.926Z,21.6
2022-08-07T12:17:26.153Z,21.3
2022-08-07T12:18:42.389Z,21.3
2022-08-07T12:19:58.627Z,22.2
2022-08-07T12:21:14.881Z,21.7
2022-08-07T12:22:31.110Z,22.1
2022-08-07T12:23:47.343Z,22.4
2022-08-07T12:25:03.593Z,21.6
2022-08-07T12:26:18.842Z,21.4
2022-08-07T12:27:35.087Z,21
2022-08-07T12:28:51.318Z,21.9
2022-08-07T12:30:07.561Z,21.4
2022-08-07T12:31:23.798Z,21.7
2022-08-07T12:32:40.035Z,21.2
2022-08-07T12:33:55.302Z,22.1
2022-08-07T12:35:11.538Z,21.1
2022-08-07T12:36:27.784Z,21.7
2022-08-07T12:37:44.021Z,22.9
2022-08-07T12:39:00.265Z,21.9
2022-08-07T12:40:16.503Z,21.4
2022-08-07T12:41:32.734Z,22.3
2022-08-07T12:42:48.966Z,22.4
2022-08-07T12:44:05.220Z,21.7
2022-08-07T12:45:21.446Z,22.2
2022-08-07T12:46:37.701Z,22.3
2022-08-07T12:47:53.923Z,21.9
2022-08-07T12:49:10.178Z,20.8
2022-08-07T12:50:25.437Z,21.3
2022-08-07T12:51:41.672Z,22.9
2022-08-07T12:52:57.908Z,20.9
2022-08-07T12:54:14.143Z,22
2022-08-07T12:55:30.381Z,21.6
2022-08-07T12:56:46.628Z,22
2022-08-07T12:58:02.868Z,23.3
2022-08-07T12:59:19.106Z,25.2
2022-08-07T13:00:35.341Z,24.6
2022-08-07T13:01:51.574Z,23.9
2022-08-07T13:03:07.823Z,24
2022-08-07T13:04:24.059Z,23.9
2022-08-07T13:05:40.305Z,24.1
2022-08-07T13:06:55.556Z,23
2022-08-07T13:08:11.793Z,23
2022-08-07T13:09:28.027Z,22.3
2022-08-07T13:10:44.278Z,22.7
2022-08-07T13:12:00.505Z,24
2022-08-07T13:13:16.746Z,22.6
2022-08-07T13:14:32.983Z,21.8
2022-08-07T13:15:49.226Z,21.1
2022-08-07T13:17:05.477Z,22.9
2022-08-07T13:18:21.710Z,23.4
2022-08-07T13:19:37.945Z,23.4
2022-08-07T13:20:54.185Z,23.3
2022-08-07T13:22:10.426Z,23.3
2022-08-07T13:23:25.688Z,24
2022-08-07T13:24:41.914Z,22.8
2022-08-07T13:25:58.159Z,21.9
2022-08-07T13:27:14.000Z,22.3
2022-08-07T13:28:30.630Z,22
2022-08-07T13:29:46.871Z,21.7
2022-08-07T13:31:03.123Z,23
2022-08-07T13:32:19.350Z,22.9
2022-08-07T13:33:35.599Z,22.1
2022-08-07T13:34:51.841Z,22.3
2022-08-07T13:36:08.084Z,23
2022-08-07T13:37:24.314Z,24.1
2022-08-07T13:38:40.553Z,23.3
2022-08-07T13:39:55.810Z,24
2022-08-07T13:41:12.036Z,23.5
2022-08-07T13:42:28.280Z,23.6
2022-08-07T13:43:44.519Z,23.5
2022-08-07T13:45:00.766Z,22.9
2022-08-07T13:46:17.008Z,22.9
2022-08-07T13:47:33.251Z,22.8
2022-08-07T13:48:49.483Z,22.8
2022-08-07T13:50:05.729Z,22
2022-08-07T13:51:21.968Z,22.1
2022-08-07T13:52:38.208Z,22.4
2022-08-07T13:53:54.434Z,21.9
2022-08-07T13:55:10.675Z,22.5
2022-08-07T13:56:25.944Z,22.3
2022-08-07T13:57:42.176Z,21.7
2022-08-07T13:58:58.418Z,21.6
2022-08-07T14:00:14.644Z,22.6
2022-08-07T14:01:30.889Z,23.4
2022-08-07T14:02:47.121Z,23.4
2022-08-07T14:04:03.357Z,21.5
2022-08-07T14:06:35.777Z,22
2022-08-07T14:07:52.017Z,22.3
2022-08-07T14:09:08.256Z,24.2
2022-08-07T14:10:24.501Z,24.2
2022-08-07T14:11:40.733Z,24.5
2022-08-07T14:12:55.986Z,24
2022-08-07T14:14:12.232Z,23.6
2022-08-07T14:15:28.470Z,23.7
2022-08-07T14:16:44.712Z,23.5
2022-08-07T14:18:00.941Z,23.5
2022-08-07T14:19:17.190Z,22.4
2022-08-07T14:20:33.424Z,21.3
2022-08-07T14:21:49.656Z,22
2022-08-07T14:23:05.903Z,23.1
2022-08-07T14:24:22.150Z,22.7
2022-08-07T14:25:38.393Z,23.2
2022-08-07T14:26:54.617Z,23.1
2022-08-07T14:28:10.857Z,22.5
2022-08-07T14:29:26.116Z,23.2
2022-08-07T14:30:42.348Z,22.8
2022-08-07T14:31:58.604Z,23.1
2022-08-07T14:33:14.827Z,23.1
2022-08-07T14:34:31.067Z,22.8
2022-08-07T14:35:47.321Z,22.7
2022-08-07T14:37:03.553Z,22.6
2022-08-07T14:38:19.784Z,23.3
2022-08-07T14:39:36.030Z,23
2022-08-07T14:40:52.272Z,23.5
2022-08-07T14:42:08.509Z,23.8
2022-08-07T14:43:24.743Z,24.6
2022-08-07T14:44:40.987Z,24
2022-08-07T14:45:56.250Z,24.2
2022-08-07T14:47:12.487Z,24.2
2022-08-07T14:48:28.711Z,24
2022-08-07T14:49:44.952Z,23.4
2022-08-07T14:51:01.207Z,23.8
2022-08-07T14:52:17.445Z,23.7
2022-08-07T14:53:33.685Z,25.3
2022-08-07T14:54:49.921Z,25.1
2022-08-07T14:56:06.143Z,24.9
2022-08-07T14:57:22.395Z,25.3
2022-08-07T14:58:38.619Z,26.3
2022-08-07T14:59:54.876Z,25.9
2022-08-07T15:01:11.118Z,27.3
2022-08-07T15:02:26.366Z,25.7
2022-08-07T15:03:42.604Z,25.3
2022-08-07T15:04:58.843Z,25.9
2022-08-07T15:06:15.078Z,26
2022-08-07T15:07:31.308Z,26.6
2022-08-07T15:08:47.552Z,25.9
2022-08-07T15:10:03.803Z,26
2022-08-07T15:11:20.041Z,26
2022-08-07T15:12:36.276Z,25.6
2022-08-07T15:13:52.508Z,25
2022-08-07T15:15:08.756Z,26
2022-08-07T15:16:24.993Z,26.5
2022-08-07T15:17:41.223Z,26.2
2022-08-07T15:18:56.481Z,26.1
2022-08-07T15:20:12.726Z,26.1
2022-08-07T15:21:28.949Z,26.8
2022-08-07T15:22:45.194Z,26.6
2022-08-07T15:24:01.437Z,26.9
2022-08-07T15:25:17.681Z,27
2022-08-07T15:26:33.907Z,26.7
2022-08-07T15:27:50.151Z,27.4
2022-08-07T15:29:06.389Z,27.6
2022-08-07T15:30:22.631Z,27.5
2022-08-07T15:31:38.870Z,29
2022-08-07T15:32:55.103Z,27.4
2022-08-07T15:34:11.355Z,28.4
2022-08-07T15:35:26.596Z,27.9
2022-08-07T15:36:42.846Z,27.6
2022-08-07T15:37:59.083Z,27.4
2022-08-07T15:39:15.308Z,27.6
2022-08-07T15:40:31.558Z,27.4
2022-08-07T15:41:47.793Z,28.3
2022-08-07T15:43:04.031Z,28.1
2022-08-07T15:44:20.265Z,28.6
2022-08-07T15:45:36.501Z,29.3
2022-08-07T15:46:52.741Z,29.3
2022-08-07T15:48:08.983Z,28
2022-08-07T15:49:25.218Z,27.2
2022-08-07T15:50:41.463Z,28.2
2022-08-07T15:51:56.710Z,28
2022-08-07T15:53:12.954Z,27.3
2022-08-07T15:54:29.199Z,27.7
2022-08-07T15:55:45.440Z,27.6
2022-08-07T15:57:01.679Z,27.6
2022-08-07T15:58:17.913Z,28
2022-08-07T15:59:34.159Z,28.1
2022-08-07T16:00:50.398Z,29.5
2022-08-07T16:02:06.628Z,28.4
2022-08-07T16:03:22.868Z,28.9
2022-08-07T16:04:39.107Z,29
2022-08-07T16:05:55.341Z,29
2022-08-07T16:07:11.586Z,27.5
2022-08-07T16:09:43.079Z,28.4
2022-08-07T16:10:59.303Z,28.2
2022-08-07T16:12:15.559Z,28.6
2022-08-07T16:13:31.783Z,28.6
2022-08-07T16:14:48.036Z,28.4
2022-08-07T16:16:04.259Z,29.2
2022-08-07T16:17:20.500Z,30.2
2022-08-07T16:18:36.752Z,30
2022-08-07T16:19:52.994Z,29.5
2022-08-07T16:21:09.227Z,30.6
2022-08-07T16:22:25.454Z,30.3
2022-08-07T16:23:41.695Z,29.8
2022-08-07T16:24:56.967Z,29.2
2022-08-07T16:26:13.193Z,30.3
2022-08-07T16:27:29.434Z,29.6
2022-08-07T16:28:45.674Z,30.7
2022-08-07T16:30:01.909Z,29.9
2022-08-07T16:31:18.143Z,30.4
2022-08-07T16:32:34.394Z,29.6
2022-08-07T16:33:50.631Z,31.2
2022-08-07T16:35:06.874Z,30.5
2022-08-07T16:36:23.103Z,30.1
2022-08-07T16:37:39.342Z,29.7
2022-08-07T16:38:55.581Z,29.7
2022-08-07T16:40:11.820Z,29.2
2022-08-07T16:41:27.079Z,29.6
2022-08-07T16:42:43.326Z,29.9
2022-08-07T16:43:59.552Z,29.5
2022-08-07T16:45:15.800Z,29.5
2022-08-07T16:46:32.031Z,29.6
2022-08-07T16:47:48.267Z,30
2022-08-07T16:49:03.535Z,30.4
2022-08-07T16:50:19.774Z,29.8
2022-08-07T16:51:36.008Z,30.2
2022-08-07T16:52:52.248Z,30.7
2022-08-07T16:54:08.488Z,30.5
2022-08-07T16:55:24.730Z,30.4
2022-08-07T16:56:40.973Z,30.1
2022-08-07T16:57:57.196Z,30.1
2022-08-07T16:59:13.440Z,30.3
2022-08-07T17:00:29.673Z,30.7
2022-08-07T17:01:45.912Z,31.5
2022-08-07T17:03:02.147Z,32.5
2022-08-07T17:04:18.406Z,31.1
2022-08-07T17:05:33.657Z,31
2022-08-07T17:06:49.891Z,31.1